createdAt,value
2023-02-25T00:00:31.942Z,100121.34
2023-02-25T00:04:45.617Z,100113.38
2023-02-25T00:08:58.071Z,100098.41
2023-02-25T00:13:18.217Z,100089.44
2023-02-25T00:17:30.948Z,100079.66
2023-02-25T00:21:43.315Z,100088.47
2023-02-25T00:26:05.924Z,100092.13
2023-02-25T00:30:18.387Z,100089.53
2023-02-25T00:34:31.875Z,100097.47
2023-02-25T00:38:48.544Z,100097.47
2023-02-25T00:43:01.472Z,100099.19
2023-02-25T00:47:14.860Z,100106.25
2023-02-25T00:51:30.754Z,100107.97
2023-02-25T00:55:43.098Z,100101.84
2023-02-25T00:59:55.919Z,100079.03
2023-02-25T01:04:09.620Z,100086.06
2023-02-25T01:08:23.480Z,100063.19
2023-02-25T01:12:35.808Z,100045.53
2023-02-25T01:16:49.422Z,100044.50
2023-02-25T01:21:02.459Z,100033.81
2023-02-25T01:25:17.692Z,100029.38
2023-02-25T01:29:33.420Z,100031.22
2023-02-25T01:33:46.820Z,100026.81
2023-02-25T01:37:59.178Z,100019.75
2023-02-25T01:42:16.735Z,100008.19
2023-02-25T01:46:30.515Z,100019.69
2023-02-25T01:50:50.130Z,100024.06
2023-02-25T01:55:05.328Z,100012.63
2023-02-25T01:59:21.256Z,100012.59
2023-02-25T02:03:36.258Z,100000.22
2023-02-25T02:07:48.768Z,99996.66
2023-02-25T02:12:05.188Z,99992.16
2023-02-25T02:16:42.720Z,99993.94
2023-02-25T02:21:07.907Z,99992.22
2023-02-25T02:25:37.710Z,99991.41
2023-02-25T02:30:40.989Z,99990.63
2023-02-25T02:35:17.967Z,99994.28
2023-02-25T02:39:48.187Z,100004.97
2023-02-25T02:44:28.771Z,100021.69
2023-02-25T02:48:55.534Z,100012.00
2023-02-25T02:53:14.071Z,100008.50
2023-02-25T02:57:29.101Z,100004.94
2023-02-25T03:01:55.494Z,100007.63
2023-02-25T03:06:16.073Z,99991.81
2023-02-25T03:10:28.809Z,99992.69
2023-02-25T03:14:41.931Z,99999.78
2023-02-25T03:19:25.047Z,99992.78
2023-02-25T03:23:42.141Z,99979.50
2023-02-25T03:27:57.713Z,99966.91
2023-02-25T03:32:16.283Z,99953.50
2023-02-25T03:36:37.689Z,99943.94
2023-02-25T03:40:52.371Z,99944.03
2023-02-25T03:45:08.633Z,99945.06
2023-02-25T03:49:47.705Z,99951.19
2023-02-25T03:54:00.442Z,99931.66
2023-02-25T03:58:16.684Z,99919.19
2023-02-25T04:02:33.424Z,99917.41
2023-02-25T04:06:45.825Z,99915.63
2023-02-25T04:10:59.436Z,99898.88
2023-02-25T04:15:14.710Z,99895.34
2023-02-25T04:19:27.101Z,99883.00
2023-02-25T04:23:39.521Z,99887.47
2023-02-25T04:27:52.078Z,99876.78
2023-02-25T04:32:05.376Z,99871.66
2023-02-25T04:36:30.307Z,99864.78
2023-02-25T04:40:42.735Z,99873.69
2023-02-25T04:44:55.105Z,99863.19
2023-02-25T04:49:09.787Z,99853.53
2023-02-25T04:53:22.083Z,99852.66
2023-02-25T04:57:34.519Z,99854.53
2023-02-25T05:01:46.985Z,99856.31
2023-02-25T05:06:00.517Z,99854.53
2023-02-25T05:10:15.340Z,99857.31
2023-02-25T05:14:28.096Z,99863.53
2023-02-25T05:18:44.301Z,99850.41
2023-02-25T05:22:56.736Z,99856.56
2023-02-25T05:27:09.567Z,99849.56
2023-02-25T05:31:25.178Z,99844.28
2023-02-25T05:35:40.886Z,99845.13
2023-02-25T05:39:53.274Z,99839.78
2023-02-25T05:44:05.861Z,99840.53
2023-02-25T05:48:18.320Z,99836.03
2023-02-25T05:52:30.813Z,99828.09
2023-02-25T05:56:44.614Z,99824.50
2023-02-25T06:00:56.993Z,99841.94
2023-02-25T06:05:09.705Z,99852.38
2023-02-25T06:09:22.926Z,99855.06
2023-02-25T06:13:35.490Z,99852.31
2023-02-25T06:17:47.917Z,99868.19
2023-02-25T06:22:00.368Z,99857.53
2023-02-25T06:26:14.539Z,99857.44
2023-02-25T06:30:27.601Z,99866.13
2023-02-25T06:34:40.285Z,99884.50
2023-02-25T06:38:52.804Z,99899.25
2023-02-25T06:43:07.852Z,99891.94
2023-02-25T06:47:22.696Z,99888.41
2023-02-25T06:51:35.175Z,99878.84
2023-02-25T06:55:47.567Z,99873.50
2023-02-25T07:00:02.087Z,99871.69
2023-02-25T07:04:18.767Z,99871.53
2023-02-25T07:08:31.760Z,99868.66
2023-02-25T07:12:45.182Z,99864.88
2023-02-25T07:16:57.604Z,99865.13
2023-02-25T07:21:12.610Z,99874.13
2023-02-25T07:25:25.081Z,99895.81
2023-02-25T07:29:37.503Z,99893.53
2023-02-25T07:33:50.019Z,99888.88
2023-02-25T07:38:02.306Z,99904.69
2023-02-25T07:42:14.812Z,99910.31
2023-02-25T07:46:34.693Z,99913.78
2023-02-25T07:50:47.125Z,99924.47
2023-02-25T07:54:59.546Z,99919.81
2023-02-25T07:59:11.942Z,99909.53
2023-02-25T08:03:24.777Z,99908.31
2023-02-25T08:07:37.173Z,99894.09
2023-02-25T08:11:49.628Z,99899.00
2023-02-25T08:16:09.205Z,99881.13
2023-02-25T08:20:22.021Z,99855.03
2023-02-25T08:24:34.430Z,99849.38
2023-02-25T08:28:46.832Z,99875.31
2023-02-25T08:32:59.434Z,99876.31
2023-02-25T08:37:12.161Z,99858.75
2023-02-25T08:41:27.168Z,99844.03
2023-02-25T08:45:42.869Z,99845.38
2023-02-25T08:49:55.218Z,99841.34
2023-02-25T08:54:12.182Z,99859.22
2023-02-25T08:58:25.497Z,99843.34
2023-02-25T09:02:42.930Z,99837.09
2023-02-25T09:06:55.505Z,99851.75
2023-02-25T09:11:07.855Z,99840.94
2023-02-25T09:15:22.113Z,99851.06
2023-02-25T09:19:34.543Z,99840.56
2023-02-25T09:23:47.689Z,99850.28
2023-02-25T09:28:00.143Z,99858.31
2023-02-25T09:32:19.117Z,99851.31
2023-02-25T09:36:32.019Z,99854.97
2023-02-25T09:40:48.985Z,99840.38
2023-02-25T09:45:04.798Z,99837.13
2023-02-25T09:49:40.474Z,99825.91
2023-02-25T09:54:00.359Z,99836.78
2023-02-25T09:58:12.444Z,99854.25
2023-02-25T10:02:26.235Z,99843.53
2023-02-25T10:06:44.510Z,99833.75
2023-02-25T10:11:08.013Z,99822.16
2023-02-25T10:15:52.867Z,99814.81
2023-02-25T10:20:35.173Z,99806.56
2023-02-25T10:24:52.109Z,99798.44
2023-02-25T10:29:13.090Z,99799.22
2023-02-25T10:33:27.914Z,99793.63
2023-02-25T10:37:40.206Z,99790.44
2023-02-25T10:41:53.053Z,99796.75
2023-02-25T10:46:13.557Z,99802.84
2023-02-25T10:50:44.432Z,99809.63
2023-02-25T10:54:57.706Z,99797.22
2023-02-25T10:59:36.068Z,99785.75
2023-02-25T11:04:00.860Z,99779.09
2023-02-25T11:08:44.816Z,99774.31
2023-02-25T11:12:58.379Z,99767.50
2023-02-25T11:17:12.534Z,99766.38
2023-02-25T11:21:35.416Z,99753.69
2023-02-25T11:25:47.987Z,99752.78
2023-02-25T11:30:08.592Z,99739.50
2023-02-25T11:34:43.847Z,99740.06
2023-02-25T11:39:22.017Z,99728.72
2023-02-25T11:43:43.836Z,99725.19
2023-02-25T11:47:58.316Z,99724.34
2023-02-25T11:52:13.522Z,99723.34
2023-02-25T11:56:34.508Z,99706.69
2023-02-25T12:01:11.586Z,99707.59
2023-02-25T12:05:44.693Z,99711.22
2023-02-25T12:10:27.884Z,99708.84
2023-02-25T12:15:11.110Z,99706.06
2023-02-25T12:19:29.246Z,99695.91
2023-02-25T12:24:16.188Z,99694.59
2023-02-25T12:28:41.900Z,99685.50
2023-02-25T12:33:12.315Z,99686.00
2023-02-25T12:37:41.165Z,99687.25
2023-02-25T12:42:05.566Z,99687.75
2023-02-25T12:46:50.346Z,99686.47
2023-02-25T12:51:48.049Z,99688.69
2023-02-25T12:56:37.245Z,99698.13
2023-02-25T13:01:13.153Z,99695.31
2023-02-25T13:05:49.918Z,99690.72
2023-02-25T13:10:45.074Z,99688.41
2023-02-25T13:15:09.135Z,99682.50
2023-02-25T13:19:47.369Z,99689.84
2023-02-25T13:24:30.742Z,99677.75
2023-02-25T13:29:12.168Z,99672.97
2023-02-25T13:33:44.195Z,99672.78
2023-02-25T13:37:59.460Z,99666.66
2023-02-25T13:42:30.257Z,99663.56
2023-02-25T13:47:16.300Z,99649.97
2023-02-25T13:51:32.393Z,99625.75
2023-02-25T13:56:22.939Z,99642.91
2023-02-25T14:00:49.080Z,99617.72
2023-02-25T14:05:38.872Z,99609.72
2023-02-25T14:10:04.205Z,99599.31
2023-02-25T14:14:41.012Z,99599.09
2023-02-25T14:19:20.646Z,99598.88
2023-02-25T14:23:33.014Z,99599.34
2023-02-25T14:28:13.492Z,99597.13
2023-02-25T14:32:35.604Z,99580.53
2023-02-25T14:37:21.531Z,99581.25
2023-02-25T14:41:56.026Z,99573.94
2023-02-25T14:46:37.630Z,99559.78
2023-02-25T14:51:20.045Z,99567.47
2023-02-25T14:55:44.633Z,99573.69
2023-02-25T15:00:27.824Z,99574.19
2023-02-25T15:04:47.765Z,99555.53
2023-02-25T15:09:38.506Z,99568.66
2023-02-25T15:14:33.419Z,99571.19
2023-02-25T15:18:58.555Z,99576.00
2023-02-25T15:23:16.847Z,99576.00
2023-02-25T15:27:38.347Z,99566.84
2023-02-25T15:32:12.272Z,99566.53
2023-02-25T15:36:41.937Z,99563.66
2023-02-25T15:40:55.771Z,99562.03
2023-02-25T15:45:29.903Z,99555.72
2023-02-25T15:49:47.594Z,99560.91
2023-02-25T15:54:00.421Z,99565.06
2023-02-25T15:58:25.051Z,99564.78
2023-02-25T16:02:41.747Z,99557.69
2023-02-25T16:06:55.189Z,99551.13
2023-02-25T16:11:21.306Z,99558.97
2023-02-25T16:15:37.472Z,99546.97
2023-02-25T16:19:56.120Z,99531.81
2023-02-25T16:24:10.854Z,99530.09
2023-02-25T16:29:02.120Z,99522.28
2023-02-25T16:33:29.054Z,99511.25
2023-02-25T16:37:51.463Z,99513.09
2023-02-25T16:42:12.775Z,99504.28
2023-02-25T16:46:33.102Z,99505.38
2023-02-25T16:50:51.216Z,99508.91
2023-02-25T16:55:11.441Z,99501.16
2023-02-25T16:59:25.070Z,99517.44
2023-02-25T17:03:48.839Z,99515.03
2023-02-25T17:08:06.093Z,99512.75
2023-02-25T17:12:28.642Z,99496.50
2023-02-25T17:16:43.861Z,99496.66
2023-02-25T17:21:16.415Z,99509.75
2023-02-25T17:25:37.663Z,99502.59
2023-02-25T17:29:50.712Z,99501.19
2023-02-25T17:34:04.429Z,99499.25
2023-02-25T17:38:20.664Z,99490.06
2023-02-25T17:42:36.052Z,99496.31
2023-02-25T17:46:50.785Z,99503.75
2023-02-25T17:51:08.579Z,99507.56
2023-02-25T17:55:35.297Z,99495.84
2023-02-25T18:00:30.561Z,99499.72
2023-02-25T18:04:43.085Z,99516.50
2023-02-25T18:08:55.887Z,99489.16
2023-02-25T18:13:20.288Z,99492.91
2023-02-25T18:17:35.710Z,99483.47
2023-02-25T18:21:48.163Z,99476.00
2023-02-25T18:26:17.895Z,99474.44
2023-02-25T18:30:31.881Z,99462.66
2023-02-25T18:34:47.045Z,99456.50
2023-02-25T18:39:04.380Z,99452.78
2023-02-25T18:43:19.104Z,99448.97
2023-02-25T18:47:31.396Z,99431.63
2023-02-25T18:51:43.908Z,99432.66
2023-02-25T18:55:57.778Z,99406.00
2023-02-25T19:00:11.077Z,99422.25
2023-02-25T19:04:23.488Z,99423.41
2023-02-25T19:08:35.970Z,99432.97
2023-02-25T19:12:50.975Z,99425.59
2023-02-25T19:17:03.843Z,99436.97
2023-02-25T19:21:21.651Z,99443.47
2023-02-25T19:25:36.404Z,99425.25
2023-02-25T19:29:51.236Z,99451.19
2023-02-25T19:34:03.739Z,99459.66
2023-02-25T19:38:19.003Z,99450.31
2023-02-25T19:42:31.326Z,99466.91
2023-02-25T19:46:44.612Z,99448.19
2023-02-25T19:50:57.059Z,99454.00
2023-02-25T19:55:11.781Z,99443.56
2023-02-25T19:59:24.168Z,99451.06
2023-02-25T20:03:36.812Z,99452.09
2023-02-25T20:07:49.268Z,99450.53
2023-02-25T20:12:02.678Z,99460.91
2023-02-25T20:16:15.159Z,99454.25
2023-02-25T20:20:29.689Z,99456.91
2023-02-25T20:24:42.249Z,99463.66
2023-02-25T20:28:55.501Z,99469.63
2023-02-25T20:33:08.109Z,99445.16
2023-02-25T20:37:24.778Z,99447.91
2023-02-25T20:41:37.361Z,99450.78
2023-02-25T20:45:49.880Z,99441.84
2023-02-25T20:50:04.668Z,99434.78
2023-02-25T20:54:19.542Z,99455.47
2023-02-25T20:58:31.924Z,99478.16
2023-02-25T21:02:44.320Z,99453.84
2023-02-25T21:06:56.824Z,99442.63
2023-02-25T21:11:09.313Z,99457.50
2023-02-25T21:15:21.860Z,99394.38
2023-02-25T21:19:34.157Z,99427.19
2023-02-25T21:23:47.344Z,99410.63
2023-02-25T21:27:59.746Z,99409.69
2023-02-25T21:32:12.299Z,99409.63
2023-02-25T21:36:24.873Z,99436.94
2023-02-25T21:40:37.830Z,99431.88
2023-02-25T21:44:50.270Z,99431.47
2023-02-25T21:49:02.829Z,99434.22
2023-02-25T21:53:15.791Z,99423.97
2023-02-25T21:57:29.203Z,99436.28
2023-02-25T22:01:42.554Z,99460.16
2023-02-25T22:05:55.138Z,99453.91
2023-02-25T22:10:09.142Z,99410.44
2023-02-25T22:14:21.665Z,99437.38
2023-02-25T22:18:35.492Z,99425.75
2023-02-25T22:22:48.283Z,99454.84
2023-02-25T22:27:01.457Z,99416.97
2023-02-25T22:31:16.873Z,99422.16
2023-02-25T22:35:30.681Z,99411.50
2023-02-25T22:39:43.505Z,99401.06
2023-02-25T22:43:57.693Z,99386.06
2023-02-25T22:48:10.149Z,99394.91
2023-02-25T22:52:22.642Z,99405.03
2023-02-25T22:56:35.068Z,99420.09
2023-02-25T23:00:47.639Z,99405.47
2023-02-25T23:05:00.880Z,99369.66
2023-02-25T23:09:14.733Z,99399.13
2023-02-25T23:13:27.229Z,99419.50
2023-02-25T23:17:39.548Z,99417.19
2023-02-25T23:21:52.673Z,99434.56
2023-02-25T23:26:07.736Z,99404.38
2023-02-25T23:30:20.181Z,99382.50
2023-02-25T23:34:32.843Z,99404.44
2023-02-25T23:38:45.170Z,99371.19
2023-02-25T23:42:57.516Z,99359.22
2023-02-25T23:47:12.540Z,99366.28
2023-02-25T23:51:25.740Z,99349.22
2023-02-25T23:55:38.308Z,99350.78
2023-02-25T23:59:50.675Z,99316.28
